Startpagina
METAR-TAF:

METAR-TAF

Vliegvelden :

Mauritius, Mauritius

breedte: 20-26S, lengte: 057-40E, hoogte: 55 m

Actueel weer

Dit bericht is 1 uur en het 5 minuten geleden gemaakt, om 04:00 UTC
Wind 23 kt uit het oostnoordoosten
Temperatuur 25°C
Vochtigheid 65%
Druk 1020 hPa
Zicht 10 km of meer
Verspreide wolken op 1600 ft
Gebroken wolken op 5000 ft

METAR: FIMP 130400Z 06023KT 9999 SCT016 BKN050 25/18 Q1020

Tijdstip: 09:05 (05:05 UTC)

Verwachting

Dit bericht is 5 uur en het 10 minuten geleden gemaakt, om 23:55 UTC
Verwachting geldig van 13 om 00 UTC tot 14 om 06 UTC
Wind 17 kt uit het oostnoordoosten met uitschieters tot 27 kt
Zicht 10 km of meer
Verspreide wolken op 1500 ft
Tijdelijke
van 13 om 00 UTC tot 13 om 06 UTC
Zicht: 7000 m
Weinig wolken op 1000 ft
Gebroken wolken op 1400 ft
lichte regen,

TAF: FIMP 122355Z 1300/1406 06017G27KT 9999 SCT015 TEMPO 1300/1306 7000 -RA FEW010 BKN014

Waarnemingen en weersverwachtingen van meer dan 4000 vliegvelden (METAR en TAF).

De beschikbare stations zijn de gele en rode punten op de kaart.

Ga met uw muis naar het station om de naam te zien.

Klik dan om waarnemingen en weersverwachtingen te zien.

kaart wijzigen: klik op de groene knoppen met een zwart kruis om in te zoomen, op de groene knop met een streepje om uit te zoomen of op de groene pijlen voor aangrenzende kaarten.


METAR-TAF: